Time;durP1;ratioP1;P1;durP2;ratioP2;P2;SDS_P1;SDS_P2;PMS_P1;PMS_P2;Temp;Humidity;BMP_temperature;BMP_pressure;BME280_temperature;BME280_humidity;BME280_pressure;Samples;Min_cycle;Max_cycle;Signal;HPM_P1;HPM_P2
2022/05/08 00:01:55;;;;;;;5.70;2.75;;;;;;;10.22;54.99;99875.94;4943722;28;20049;-88
2022/05/08 00:04:20;;;;;;;6.88;2.80;;;;;;;10.28;54.84;99877.63;4942761;28;20030;-88
2022/05/08 00:06:46;;;;;;;6.20;2.63;;;;;;;10.19;54.37;99868.38;4928110;28;20041;-88
2022/05/08 00:09:11;;;;;;;10.80;3.30;;;;;;;10.11;56.31;99876.91;4943423;28;20035;-88
2022/05/08 00:11:37;;;;;;;4.22;2.83;;;;;;;9.97;56.85;99879.16;4943655;28;20011;-88
2022/05/08 00:14:02;;;;;;;4.80;3.10;;;;;;;9.80;57.95;99867.69;4927059;28;20027;-88
2022/05/08 00:16:28;;;;;;;7.38;3.33;;;;;;;9.83;57.60;99862.59;4927361;28;20405;-88
2022/05/08 00:18:53;;;;;;;5.07;2.88;;;;;;;9.74;58.51;99861.41;4927524;28;20027;-88
2022/05/08 00:21:19;;;;;;;4.53;2.92;;;;;;;9.72;58.32;99871.63;4927728;28;20023;-88
2022/05/08 00:23:45;;;;;;;10.18;3.50;;;;;;;9.61;58.39;99861.81;4927347;28;20027;-87
2022/05/08 00:26:10;;;;;;;9.18;3.40;;;;;;;9.57;58.38;99858.81;4926740;28;20054;-88
2022/05/08 00:28:36;;;;;;;7.93;2.97;;;;;;;9.60;58.25;99862.84;4927565;28;20470;-88
2022/05/08 00:31:02;;;;;;;9.10;3.03;;;;;;;9.59;58.39;99862.06;4927789;28;20062;-88
2022/05/08 00:33:27;;;;;;;4.20;2.78;;;;;;;9.53;59.42;99862.25;4943073;28;20505;-87
2022/05/08 00:35:53;;;;;;;5.97;2.92;;;;;;;9.40;59.35;99863.41;4941997;28;20026;-89
2022/05/08 00:38:19;;;;;;;4.20;2.97;;;;;;;9.29;59.72;99846.31;4927536;28;20019;-88
2022/05/08 00:40:44;;;;;;;5.18;2.97;;;;;;;9.36;60.07;99860.41;4943513;28;20023;-88
2022/05/08 00:43:31;;;;;;;7.28;3.70;;;;;;;9.32;59.94;99867.34;4947439;28;20030;-88
2022/05/08 00:45:56;;;;;;;6.50;3.40;;;;;;;9.11;60.59;99847.44;4963882;28;20037;-88
2022/05/08 00:48:22;;;;;;;4.68;3.38;;;;;;;9.05;60.42;99859.16;4945433;28;20043;-88
2022/05/08 00:50:47;;;;;;;7.20;3.20;;;;;;;9.01;60.64;99856.16;4946369;28;20109;-89
2022/05/08 00:53:13;;;;;;;6.63;3.42;;;;;;;8.87;60.96;99858.34;4930526;28;20031;-89
2022/05/08 00:55:38;;;;;;;8.75;3.53;;;;;;;8.89;60.98;99863.50;4946543;28;20018;-88
2022/05/08 00:58:04;;;;;;;9.70;3.33;;;;;;;8.75;61.33;99860.31;4929518;28;20029;-89
2022/05/08 01:00:29;;;;;;;5.60;3.65;;;;;;;8.75;61.83;99864.88;4946774;28;20448;-89
2022/05/08 01:02:57;;;;;;;7.65;3.42;;;;;;;8.61;62.11;99851.78;4946306;28;20082;-87
2022/05/08 01:05:22;;;;;;;11.82;3.33;;;;;;;8.43;62.03;99852.00;4930412;28;20027;-88
2022/05/08 01:07:48;;;;;;;9.35;3.20;;;;;;;8.36;61.93;99854.78;4928735;28;20413;-87
2022/05/08 01:10:13;;;;;;;5.15;3.40;;;;;;;8.36;62.16;99862.84;4945558;28;20039;-88
2022/05/08 01:12:44;;;;;;;6.20;3.17;;;;;;;8.38;62.18;99859.94;4946383;28;20026;-88
2022/05/08 01:15:18;;;;;;;6.28;4.47;;;;;;;8.32;62.31;99860.88;4948174;28;20015;-88
2022/05/08 01:17:43;;;;;;;8.43;3.50;;;;;;;8.22;62.42;99859.66;4962802;28;20030;-87
2022/05/08 01:20:09;;;;;;;6.38;3.50;;;;;;;8.20;62.67;99864.47;4961153;28;20393;-88
2022/05/08 01:22:34;;;;;;;5.03;3.30;;;;;;;8.14;62.65;99852.00;4946262;28;20065;-88
2022/05/08 01:25:00;;;;;;;7.35;3.70;;;;;;;8.04;63.54;99854.50;4930398;28;20027;-88
2022/05/08 01:27:25;;;;;;;9.68;4.03;;;;;;;8.12;63.52;99866.72;4930109;28;20125;-88
2022/05/08 01:29:51;;;;;;;8.57;3.53;;;;;;;8.14;63.17;99861.94;4944886;28;20034;-87
2022/05/08 01:32:16;;;;;;;9.68;4.78;;;;;;;8.09;63.34;99855.41;4929979;28;20050;-87
2022/05/08 01:34:42;;;;;;;13.45;5.18;;;;;;;7.99;63.89;99857.91;4946968;28;20026;-87
2022/05/08 01:37:07;;;;;;;12.88;6.70;;;;;;;7.92;63.82;99859.91;4946071;28;20037;-87
2022/05/08 01:39:33;;;;;;;12.35;7.30;;;;;;;7.89;64.02;99861.19;4961855;28;20018;-88
2022/05/08 01:41:58;;;;;;;14.65;6.07;;;;;;;7.82;64.48;99848.97;4949240;28;20030;-87
2022/05/08 01:44:25;;;;;;;6.57;5.00;;;;;;;7.74;64.05;99844.81;4946241;28;20027;-88
2022/05/08 01:48:21;;;;;;;11.93;5.40;;;;;;;7.68;64.63;99845.78;4978694;28;20078;-87
2022/05/08 01:49:35;;;;;;;8.50;4.32;;;;;;;7.74;64.22;99862.75;4978909;28;20043;-92
2022/05/08 01:52:01;;;;;;;7.30;4.20;;;;;;;7.86;64.14;99871.56;4946845;28;20074;-89
2022/05/08 01:54:26;;;;;;;10.40;4.50;;;;;;;7.68;64.41;99865.34;4945583;28;20042;-89
2022/05/08 01:56:52;;;;;;;7.15;4.03;;;;;;;7.66;64.34;99864.78;4945818;28;20034;-90
2022/05/08 01:59:17;;;;;;;11.05;5.95;;;;;;;7.52;64.54;99857.22;4945446;28;20189;-89
2022/05/08 02:01:43;;;;;;;9.77;4.70;;;;;;;7.51;64.31;99869.78;4928802;28;20018;-89
2022/05/08 02:04:15;;;;;;;6.15;3.58;;;;;;;7.37;65.33;99874.59;4945884;28;20504;-89
2022/05/08 02:06:43;;;;;;;7.38;4.22;;;;;;;7.31;65.21;99858.66;4931385;28;20485;-88
2022/05/08 02:09:09;;;;;;;7.35;4.22;;;;;;;7.37;65.24;99868.44;4945646;28;20019;-89
2022/05/08 02:11:34;;;;;;;10.80;4.40;;;;;;;7.25;65.18;99863.91;4944854;28;20029;-89
2022/05/08 02:14:00;;;;;;;6.97;4.50;;;;;;;7.32;65.20;99861.09;4945166;28;20469;-89
2022/05/08 02:16:25;;;;;;;7.22;4.20;;;;;;;7.29;64.82;99867.72;4960983;28;20023;-89
2022/05/08 02:18:51;;;;;;;5.53;3.58;;;;;;;7.22;64.41;99869.72;4929819;28;20018;-89
2022/05/08 02:21:17;;;;;;;6.43;3.72;;;;;;;7.15;65.81;99868.22;4944803;28;20034;-88
2022/05/08 02:23:43;;;;;;;6.45;4.47;;;;;;;7.07;64.96;99859.47;4929324;28;20069;-89
2022/05/08 02:26:08;;;;;;;9.75;4.22;;;;;;;7.19;65.02;99866.69;4960818;28;20089;-88
2022/05/08 02:28:33;;;;;;;8.73;4.28;;;;;;;7.25;64.91;99873.81;4928984;28;20083;-89
2022/05/08 02:30:59;;;;;;;7.55;3.83;;;;;;;7.16;65.32;99867.16;4960677;28;20513;-89
2022/05/08 02:33:25;;;;;;;8.18;4.25;;;;;;;7.00;65.79;99872.19;4959967;28;20019;-89
2022/05/08 02:35:50;;;;;;;8.88;4.55;;;;;;;6.96;65.56;99868.34;4928809;28;20027;-89
2022/05/08 02:38:15;;;;;;;8.18;4.03;;;;;;;6.95;65.71;99864.03;4944685;28;20551;-88
2022/05/08 02:40:41;;;;;;;7.13;3.92;;;;;;;6.92;65.98;99867.16;4944933;28;20023;-89
2022/05/08 02:43:07;;;;;;;7.78;3.72;;;;;;;6.88;65.22;99868.69;4959977;28;20109;-89
2022/05/08 02:45:32;;;;;;;6.85;3.92;;;;;;;6.83;65.26;99868.56;4929141;28;20026;-89
2022/05/08 02:47:58;;;;;;;7.72;3.30;;;;;;;6.85;65.32;99872.63;4929339;28;20042;-89
2022/05/08 02:50:24;;;;;;;7.55;3.38;;;;;;;6.81;65.50;99876.00;4945249;28;20078;-89
2022/05/08 02:52:50;;;;;;;6.20;3.50;;;;;;;6.87;65.74;99880.44;4928032;28;20409;-89
2022/05/08 03:00:44;;;;;;;7.80;3.10;;;;;;;6.84;65.10;99864.81;4949901;28;20034;-89
2022/05/08 03:03:09;;;;;;;4.60;3.17;;;;;;;6.80;65.32;99869.81;4929126;28;20031;-89
2022/05/08 03:05:35;;;;;;;5.65;3.45;;;;;;;6.80;65.51;99872.50;4944059;28;20088;-89
2022/05/08 03:08:01;;;;;;;5.47;2.92;;;;;;;6.61;64.96;99863.75;4927909;28;20532;-89
2022/05/08 03:10:27;;;;;;;9.27;3.72;;;;;;;6.61;65.52;99879.81;4944897;28;20137;-89
2022/05/08 03:12:52;;;;;;;6.65;3.17;;;;;;;6.48;66.33;99875.47;4928927;28;20054;-89
2022/05/08 03:15:18;;;;;;;5.43;3.28;;;;;;;6.44;66.77;99876.16;4960172;28;20074;-89
2022/05/08 03:17:44;;;;;;;6.13;3.47;;;;;;;6.54;66.85;99883.66;4942815;28;20421;-89
2022/05/08 03:20:10;;;;;;;6.45;3.50;;;;;;;6.35;66.73;99869.50;4960344;28;20026;-88
2022/05/08 03:22:37;;;;;;;6.57;3.47;;;;;;;6.25;66.82;99880.78;4944811;28;20038;-88
2022/05/08 03:25:02;;;;;;;6.90;4.07;;;;;;;6.26;66.66;99874.38;4943930;28;20138;-88
2022/05/08 03:27:30;;;;;;;6.07;3.95;;;;;;;6.26;66.84;99882.38;4959377;28;20022;-89
2022/05/08 03:29:56;;;;;;;8.18;4.18;;;;;;;6.21;66.85;99887.63;4944559;28;20050;-89
2022/05/08 03:32:21;;;;;;;8.57;4.47;;;;;;;6.17;66.71;99891.78;4927721;28;20035;-89
2022/05/08 03:34:46;;;;;;;9.40;4.65;;;;;;;6.05;66.55;99894.41;4943226;28;20030;-89
2022/05/08 03:37:12;;;;;;;11.25;6.43;;;;;;;6.10;67.07;99885.69;4926862;28;20029;-89
2022/05/08 03:39:37;;;;;;;9.68;5.68;;;;;;;5.98;67.61;99885.66;4927559;28;20019;-88
2022/05/08 03:42:03;;;;;;;10.32;5.68;;;;;;;5.99;67.68;99884.59;4927783;28;20082;-88
2022/05/08 03:44:29;;;;;;;8.98;5.63;;;;;;;6.13;66.56;99896.75;4927779;28;20022;-87
2022/05/08 03:46:54;;;;;;;11.27;5.30;;;;;;;6.15;67.51;99891.19;4943010;28;20026;-87
2022/05/08 03:49:20;;;;;;;7.45;5.20;;;;;;;6.17;67.63;99895.25;4927213;28;20051;-87
2022/05/08 03:51:45;;;;;;;12.48;5.50;;;;;;;6.20;66.69;99902.81;4960601;28;20058;-87
2022/05/08 03:54:10;;;;;;;11.50;6.65;;;;;;;6.16;67.41;99893.63;4959210;28;20014;-87
2022/05/08 03:56:36;;;;;;;11.30;6.82;;;;;;;6.17;67.42;99892.59;4927951;28;20034;-87
2022/05/08 03:59:02;;;;;;;13.32;6.38;;;;;;;6.28;66.91;99896.34;4942905;28;20118;-87
2022/05/08 04:01:27;;;;;;;14.52;6.43;;;;;;;6.26;66.69;99901.91;4927750;28;20544;-87
2022/05/08 04:03:52;;;;;;;14.70;5.90;;;;;;;6.43;66.81;99907.47;4927409;28;20027;-87
2022/05/08 04:06:18;;;;;;;7.90;5.60;;;;;;;6.34;66.07;99911.47;4943746;28;20066;-87
2022/05/08 04:08:44;;;;;;;9.45;5.50;;;;;;;6.36;66.94;99908.59;4926765;28;20026;-87
2022/05/08 04:11:09;;;;;;;12.55;6.25;;;;;;;6.52;66.62;99910.63;4927676;28;20019;-87
2022/05/08 04:13:35;;;;;;;11.77;5.80;;;;;;;6.52;65.92;99915.97;4927399;28;20027;-88
2022/05/08 04:16:19;;;;;;;10.80;5.55;;;;;;;6.62;65.56;99926.94;4943164;28;20027;-88
2022/05/08 04:18:44;;;;;;;12.75;5.65;;;;;;;6.60;66.08;99921.00;4946740;28;20401;-89
2022/05/08 04:21:10;;;;;;;15.00;5.72;;;;;;;6.71;66.21;99915.91;4943335;28;20023;-88
2022/05/08 04:26:20;;;;;;;11.45;5.47;;;;;;;6.92;65.40;99912.66;4948571;28;20086;-87
2022/05/08 04:28:45;;;;;;;11.40;5.80;;;;;;;7.04;64.93;99929.56;4926937;28;20022;-87
2022/05/08 04:31:11;;;;;;;13.40;7.00;;;;;;;7.05;64.75;99920.47;4943609;28;20034;-87
2022/05/08 04:33:36;;;;;;;17.45;7.20;;;;;;;7.20;64.02;99927.25;4926011;28;20030;-87
2022/05/08 04:36:01;;;;;;;31.23;8.35;;;;;;;7.21;63.85;99920.84;4927155;28;20027;-87
2022/05/08 04:38:27;;;;;;;12.07;7.28;;;;;;;7.37;64.10;99930.88;4942904;28;20095;-87
2022/05/08 04:40:52;;;;;;;14.07;8.13;;;;;;;7.29;64.12;99912.47;4942530;28;20413;-87
2022/05/08 04:43:18;;;;;;;12.48;8.07;;;;;;;7.48;64.00;99918.50;4941786;28;20078;-86
2022/05/08 04:45:43;;;;;;;19.58;7.85;;;;;;;7.55;63.55;99923.75;4927049;28;20015;-87
2022/05/08 04:48:09;;;;;;;13.50;7.35;;;;;;;7.62;63.33;99924.44;4942437;28;20046;-87
2022/05/08 04:50:34;;;;;;;17.67;7.72;;;;;;;7.72;62.86;99932.69;4927090;28;20026;-88
2022/05/08 04:53:00;;;;;;;19.00;8.18;;;;;;;7.84;62.81;99920.09;4941817;28;20061;-87
2022/05/08 04:55:25;;;;;;;15.30;8.13;;;;;;;8.04;62.81;99929.59;4926992;28;20065;-87
2022/05/08 04:57:51;;;;;;;13.18;7.38;;;;;;;8.26;62.08;99933.25;4942748;28;20031;-89
2022/05/08 05:00:17;;;;;;;14.00;7.43;;;;;;;8.29;61.73;99921.22;4942841;28;20034;-87
2022/05/08 05:02:44;;;;;;;11.18;7.32;;;;;;;8.42;61.17;99917.44;4943754;28;20027;-88
2022/05/08 05:05:09;;;;;;;11.48;7.20;;;;;;;8.54;60.67;99917.41;4943487;28;20027;-89
2022/05/08 05:07:35;;;;;;;14.02;7.07;;;;;;;8.67;60.02;99915.25;4927346;28;20378;-88
2022/05/08 05:10:00;;;;;;;21.17;7.32;;;;;;;8.76;59.57;99920.19;4927242;28;20027;-87
2022/05/08 05:12:26;;;;;;;13.98;7.43;;;;;;;8.90;58.93;99903.53;4958897;28;20113;-86
2022/05/08 05:14:51;;;;;;;12.77;7.45;;;;;;;9.12;58.15;99910.84;4942397;28;20515;-88
2022/05/08 05:17:17;;;;;;;10.48;6.78;;;;;;;9.22;57.95;99923.63;4942660;28;20045;-86
2022/05/08 05:19:42;;;;;;;13.23;6.90;;;;;;;9.39;56.98;99927.09;4927133;28;20023;-88
2022/05/08 05:22:08;;;;;;;16.13;6.18;;;;;;;9.49;55.06;99927.25;4926383;28;20022;-88
2022/05/08 05:24:33;;;;;;;13.95;6.90;;;;;;;9.64;56.34;99923.13;4926861;28;20066;-88
2022/05/08 05:26:59;;;;;;;18.40;4.88;;;;;;;9.74;54.58;99917.09;4927373;28;20019;-89
2022/05/08 05:29:25;;;;;;;12.45;5.38;;;;;;;9.80;53.81;99921.47;4946446;28;20070;-88
2022/05/08 05:31:50;;;;;;;11.75;5.05;;;;;;;9.93;52.49;99926.47;4929914;28;20031;-89
2022/05/08 05:34:16;;;;;;;8.77;4.72;;;;;;;10.08;51.99;99925.81;4946417;28;20027;-89
2022/05/08 05:36:41;;;;;;;20.63;4.65;;;;;;;10.17;51.81;99927.03;4945805;28;20034;-88
2022/05/08 05:39:07;;;;;;;20.85;4.85;;;;;;;10.40;50.64;99933.22;4931289;28;20006;-87
2022/05/08 05:41:33;;;;;;;12.52;4.07;;;;;;;10.43;50.46;99930.81;4946799;28;20054;-89
2022/05/08 05:43:58;;;;;;;8.57;4.32;;;;;;;10.53;50.00;99932.81;4929527;28;20115;-89
2022/05/08 05:49:07;;;;;;;8.75;4.93;;;;;;;10.74;50.34;99925.72;4952168;28;20066;-86
2022/05/08 05:51:33;;;;;;;8.05;4.35;;;;;;;10.89;49.94;99933.13;4929818;28;20035;-88
2022/05/08 05:53:58;;;;;;;5.68;4.22;;;;;;;10.99;49.13;99925.13;4944736;28;20038;-86
2022/05/08 05:56:24;;;;;;;10.32;4.20;;;;;;;11.16;48.99;99921.47;4945340;28;20023;-89
2022/05/08 05:58:49;;;;;;;8.35;4.72;;;;;;;11.15;48.43;99923.38;4928925;28;20081;-88
2022/05/08 06:01:16;;;;;;;10.57;5.30;;;;;;;11.26;48.55;99927.75;4945441;28;20034;-87
2022/05/08 06:03:43;;;;;;;8.20;3.97;;;;;;;11.37;47.36;99919.72;4945889;28;20019;-87
2022/05/08 06:06:09;;;;;;;10.93;5.15;;;;;;;11.47;47.94;99928.69;4960460;28;20084;-87
2022/05/08 06:08:37;;;;;;;9.20;4.55;;;;;;;11.60;48.37;99927.44;4960993;28;20026;-88
2022/05/08 06:11:03;;;;;;;10.07;4.78;;;;;;;11.68;47.20;99929.66;4977970;28;20031;-87
2022/05/08 06:13:29;;;;;;;11.02;4.00;;;;;;;11.83;46.37;99937.00;4978184;28;20027;-87
2022/05/08 06:15:57;;;;;;;10.27;4.18;;;;;;;12.01;45.18;99930.34;4960408;28;20029;-88
2022/05/08 06:18:22;;;;;;;6.72;3.55;;;;;;;12.18;44.88;99932.84;4961202;28;20047;-88
2022/05/08 06:20:48;;;;;;;6.45;3.83;;;;;;;12.38;44.48;99936.69;4945267;28;20029;-88
2022/05/08 06:23:14;;;;;;;7.93;3.28;;;;;;;12.26;44.12;99929.63;4960431;28;20030;-87
2022/05/08 06:25:41;;;;;;;9.05;3.60;;;;;;;12.42;43.68;99937.78;4944076;28;20031;-89
2022/05/08 06:28:08;;;;;;;8.25;3.22;;;;;;;12.57;43.74;99934.28;4945518;28;20061;-87
2022/05/08 06:30:33;;;;;;;6.30;3.03;;;;;;;12.77;42.84;99928.09;4945815;28;20051;-87
2022/05/08 06:32:59;;;;;;;6.43;3.13;;;;;;;12.88;43.26;99935.13;4928966;28;20019;-88
2022/05/08 06:35:24;;;;;;;6.70;3.17;;;;;;;13.03;41.99;99927.03;4928140;28;20042;-88
2022/05/08 06:37:51;;;;;;;7.55;3.03;;;;;;;13.20;41.79;99915.09;4961580;28;20022;-87
2022/05/08 06:40:16;;;;;;;17.80;5.03;;;;;;;13.22;41.71;99921.88;4950246;28;20057;-88
2022/05/08 06:42:43;;;;;;;6.60;2.90;;;;;;;13.19;42.26;99910.78;4948611;28;20039;-88
2022/05/08 06:45:09;;;;;;;4.57;2.67;;;;;;;13.40;40.87;99923.22;4961695;28;20030;-87
2022/05/08 06:47:35;;;;;;;7.55;2.72;;;;;;;13.57;38.91;99925.59;4930851;28;20118;-88
2022/05/08 06:50:00;;;;;;;7.22;2.60;;;;;;;13.70;38.64;99927.75;4980584;28;20058;-87
2022/05/08 06:52:26;;;;;;;3.42;2.38;;;;;;;13.70;38.39;99919.63;4947890;28;20493;-88
2022/05/08 06:54:53;;;;;;;7.13;2.65;;;;;;;13.76;38.15;99917.72;4930149;28;20497;-87
2022/05/08 06:57:18;;;;;;;7.80;2.65;;;;;;;13.95;37.91;99912.50;4929390;28;20029;-87
2022/05/08 07:02:40;;;;;;;6.90;2.50;;;;;;;14.35;37.49;99916.88;4958041;28;20037;-87
2022/05/08 07:05:06;;;;;;;4.85;2.53;;;;;;;14.54;36.65;99908.91;4946918;28;20110;-88
2022/05/08 07:07:31;;;;;;;5.38;2.58;;;;;;;14.67;36.56;99915.66;4960521;28;20027;-88
2022/05/08 07:09:57;;;;;;;6.82;2.63;;;;;;;14.83;37.02;99915.53;4960788;28;20049;-88
2022/05/08 07:12:23;;;;;;;11.02;2.92;;;;;;;14.83;37.39;99918.22;4975007;28;20478;-88
2022/05/08 07:14:49;;;;;;;6.60;3.03;;;;;;;14.86;38.30;99923.91;4928099;28;20027;-88
2022/05/08 07:17:14;;;;;;;5.25;3.58;;;;;;;14.94;37.64;99923.31;4944009;28;20552;-87
2022/05/08 07:19:40;;;;;;;7.97;3.97;;;;;;;15.03;38.04;99917.28;4977157;28;20046;-88
2022/05/08 07:22:05;;;;;;;6.45;2.88;;;;;;;15.11;38.08;99911.22;4927579;28;20066;-87
2022/05/08 07:24:31;;;;;;;13.07;2.90;;;;;;;15.35;37.39;99922.91;4959269;28;20062;-87
2022/05/08 07:26:57;;;;;;;6.28;3.00;;;;;;;15.52;37.03;99914.34;4959643;28;20049;-88
2022/05/08 07:29:22;;;;;;;3.65;2.67;;;;;;;15.62;36.67;99923.47;4944229;28;20031;-89
2022/05/08 07:31:48;;;;;;;9.60;2.90;;;;;;;15.55;36.79;99910.25;4958733;28;20533;-87
2022/05/08 07:36:57;;;;;;;9.27;3.35;;;;;;;15.93;36.92;99918.50;4948692;28;20057;-87
2022/05/08 07:39:23;;;;;;;7.72;3.25;;;;;;;16.02;36.20;99913.25;4959789;28;20031;-87
2022/05/08 07:41:49;;;;;;;8.75;3.10;;;;;;;16.06;36.00;99920.53;4960239;28;20061;-88
2022/05/08 07:44:14;;;;;;;6.72;3.15;;;;;;;15.99;37.03;99905.69;4959277;28;20034;-89
2022/05/08 07:46:40;;;;;;;7.97;3.45;;;;;;;16.23;36.27;99913.78;4943374;28;20054;-88
2022/05/08 07:49:05;;;;;;;11.40;6.78;;;;;;;16.40;35.97;99918.72;4943200;28;20085;-88
2022/05/08 07:51:31;;;;;;;7.88;3.45;;;;;;;16.51;35.89;99915.53;4977379;28;20090;-88
2022/05/08 07:53:58;;;;;;;13.63;3.88;;;;;;;16.70;35.98;99923.69;4943596;28;20070;-87
2022/05/08 07:56:23;;;;;;;5.82;3.38;;;;;;;16.74;35.53;99927.44;4944243;28;20027;-87
2022/05/08 07:58:49;;;;;;;6.07;3.83;;;;;;;16.90;35.14;99914.44;4958922;28;20030;-88
2022/05/08 08:01:14;;;;;;;9.63;4.45;;;;;;;16.98;35.23;99909.44;4943918;28;20038;-89
2022/05/08 08:03:41;;;;;;;10.90;4.22;;;;;;;16.98;34.30;99912.97;4943332;28;20370;-89
2022/05/08 08:06:06;;;;;;;9.40;4.25;;;;;;;17.15;35.59;99909.66;4959123;28;20027;-89
2022/05/08 08:08:32;;;;;;;15.38;4.72;;;;;;;17.30;34.55;99911.31;4942946;28;20026;-88
2022/05/08 08:11:01;;;;;;;28.08;25.27;;;;;;;17.48;35.35;99920.53;4958982;28;20027;-88
2022/05/08 08:13:29;;;;;;;11.23;6.05;;;;;;;17.49;35.42;99913.94;4943705;28;20031;-87
2022/05/08 08:15:54;;;;;;;7.68;4.32;;;;;;;17.52;34.32;99921.53;4958094;28;20026;-89
2022/05/08 08:18:20;;;;;;;6.70;4.03;;;;;;;17.67;33.85;99904.88;4942913;28;20018;-88
2022/05/08 08:20:45;;;;;;;6.90;4.22;;;;;;;17.75;33.55;99908.81;4944045;28;20480;-89
2022/05/08 08:23:11;;;;;;;9.02;4.32;;;;;;;17.74;33.23;99910.75;4943588;28;20046;-89
2022/05/08 08:25:37;;;;;;;8.25;3.97;;;;;;;17.82;33.46;99911.16;4926473;28;20037;-88
2022/05/08 08:28:03;;;;;;;9.43;4.43;;;;;;;18.00;34.18;99915.69;4942513;28;20031;-89
2022/05/08 08:30:28;;;;;;;10.98;3.75;;;;;;;18.16;32.50;99905.28;4928074;28;20026;-89
2022/05/08 08:32:54;;;;;;;8.75;3.67;;;;;;;18.20;32.71;99910.91;4927640;28;20413;-88
2022/05/08 08:35:19;;;;;;;5.78;3.33;;;;;;;18.21;32.89;99918.78;4975058;28;20039;-89
2022/05/08 08:37:45;;;;;;;6.60;2.70;;;;;;;18.20;32.96;99916.38;4959522;28;20034;-88
2022/05/08 08:40:11;;;;;;;7.68;3.17;;;;;;;18.27;32.21;99917.56;4976737;28;20533;-87
2022/05/08 08:42:39;;;;;;;8.73;3.22;;;;;;;18.32;31.83;99909.28;4943282;28;20030;-88
2022/05/08 08:47:54;;;;;;;7.35;3.17;;;;;;;18.31;32.28;99907.66;4947205;28;20061;-89
2022/05/08 08:50:23;;;;;;;11.80;3.17;;;;;;;18.40;32.65;99909.66;4926442;28;20034;-88
2022/05/08 08:52:48;;;;;;;5.35;2.83;;;;;;;18.36;33.01;99913.03;4943005;28;20027;-88
2022/05/08 08:55:17;;;;;;;5.60;2.72;;;;;;;18.47;33.27;99904.59;4927843;28;20474;-88
2022/05/08 08:57:46;;;;;;;6.63;3.10;;;;;;;18.60;33.08;99902.94;4959380;28;20037;-88
2022/05/08 09:00:11;;;;;;;5.88;2.65;;;;;;;18.60;32.69;99905.69;4926859;28;20449;-88
2022/05/08 09:02:37;;;;;;;6.57;2.80;;;;;;;18.73;32.49;99902.06;4944653;28;20051;-88
2022/05/08 09:05:04;;;;;;;6.65;3.22;;;;;;;18.68;31.36;99904.94;4947182;28;20030;-88
2022/05/08 09:07:49;;;;;;;6.35;3.00;;;;;;;18.80;31.27;99901.66;4962091;28;20106;-86
2022/05/08 09:10:21;;;;;;;8.90;2.80;;;;;;;18.81;31.63;99886.91;4962564;28;20035;-88
2022/05/08 09:12:53;;;;;;;8.85;3.20;;;;;;;18.89;32.11;99903.34;4963098;28;20033;-87
2022/05/08 09:15:19;;;;;;;10.48;3.03;;;;;;;19.01;30.74;99893.78;4979466;28;20073;-87
2022/05/08 09:17:45;;;;;;;7.40;3.25;;;;;;;19.00;29.60;99894.91;4962708;28;20065;-88
2022/05/08 09:20:26;;;;;;;7.20;3.28;;;;;;;19.01;30.10;99878.22;4930414;28;20030;-89
2022/05/08 09:23:06;;;;;;;10.67;3.43;;;;;;;19.20;30.89;99902.56;4963049;28;20136;-88
2022/05/08 09:25:57;;;;;;;8.27;3.22;;;;;;;19.12;31.34;99893.19;4963106;28;20290;-89
2022/05/08 09:28:42;;;;;;;8.95;2.83;;;;;;;19.02;31.05;99889.94;4979588;28;20037;-87
2022/05/08 09:31:09;;;;;;;5.03;2.65;;;;;;;19.20;31.37;99888.91;4947678;28;20054;-88
2022/05/08 09:33:35;;;;;;;3.72;2.50;;;;;;;19.15;31.37;99889.88;4946561;28;20411;-89
2022/05/08 09:36:08;;;;;;;6.55;2.80;;;;;;;19.22;32.09;99891.34;4961404;28;20026;-89
2022/05/08 09:38:53;;;;;;;5.72;2.63;;;;;;;19.30;31.62;99894.09;4949520;28;20027;-89
2022/05/08 09:41:20;;;;;;;4.35;2.63;;;;;;;19.42;30.55;99890.78;4962925;28;20027;-88
2022/05/08 09:43:46;;;;;;;5.75;2.35;;;;;;;19.33;30.95;99879.81;4962898;28;20032;-87
2022/05/08 09:46:11;;;;;;;8.20;2.50;;;;;;;19.32;32.20;99888.31;4945398;28;20445;-88
2022/05/08 09:48:37;;;;;;;5.13;2.67;;;;;;;19.29;30.40;99884.28;4928771;28;20429;-89
2022/05/08 09:51:04;;;;;;;4.85;2.42;;;;;;;19.37;30.90;99889.00;4929774;28;20417;-89
2022/05/08 09:53:31;;;;;;;4.75;2.33;;;;;;;19.34;31.19;99875.97;4931165;28;20090;-89
2022/05/08 09:56:00;;;;;;;5.68;2.63;;;;;;;19.43;31.17;99867.03;4963057;28;20042;-88
2022/05/08 09:58:26;;;;;;;3.90;2.90;;;;;;;19.45;31.90;99876.50;4949974;28;20023;-88
2022/05/08 10:00:51;;;;;;;5.75;2.80;;;;;;;19.47;31.41;99877.00;4945402;28;20541;-88
2022/05/08 10:03:20;;;;;;;5.53;2.67;;;;;;;19.59;31.71;99873.66;4930368;28;20039;-88
2022/05/08 10:05:46;;;;;;;5.10;2.70;;;;;;;19.51;32.05;99868.97;4946890;28;20058;-88
2022/05/08 10:08:18;;;;;;;7.10;2.90;;;;;;;19.55;32.40;99859.03;4944639;28;20110;-87
2022/05/08 10:14:08;;;;;;;6.30;2.70;;;;;;;19.60;31.69;99867.06;4963691;28;20074;-86
2022/05/08 10:17:04;;;;;;;5.18;2.70;;;;;;;19.70;31.90;99869.53;4962264;28;20026;-88
2022/05/08 10:19:30;;;;;;;4.95;2.55;;;;;;;19.83;31.27;99864.28;4979346;28;20102;-87
2022/05/08 10:22:16;;;;;;;7.97;2.58;;;;;;;19.87;31.85;99866.03;4961534;28;20112;-88
2022/05/08 10:24:43;;;;;;;4.82;2.63;;;;;;;19.82;30.73;99858.00;4978556;28;20038;-88
2022/05/08 10:27:20;;;;;;;7.80;2.60;;;;;;;19.92;31.50;99862.34;4960795;28;20043;-87
2022/05/08 10:29:54;;;;;;;6.20;2.45;;;;;;;19.98;31.32;99856.44;4977301;28;20057;-87
2022/05/08 10:32:28;;;;;;;9.73;2.53;;;;;;;20.01;30.45;99863.19;4978003;28;20386;-87
2022/05/08 10:35:07;;;;;;;5.15;2.60;;;;;;;19.93;30.81;99855.78;4959567;28;20027;-87
2022/05/08 10:37:32;;;;;;;5.45;2.60;;;;;;;20.06;30.00;99849.34;4960249;28;20023;-88
2022/05/08 10:39:58;;;;;;;6.18;2.90;;;;;;;20.14;30.34;99840.34;4960043;28;20029;-87
2022/05/08 10:42:23;;;;;;;7.13;2.63;;;;;;;20.24;30.15;99854.84;4977275;28;20022;-88
2022/05/08 10:44:48;;;;;;;4.93;2.28;;;;;;;20.38;29.90;99847.28;4959895;28;20461;-88
2022/05/08 10:47:42;;;;;;;5.47;2.10;;;;;;;20.51;29.66;99845.50;4960128;28;20023;-87
2022/05/08 10:50:15;;;;;;;6.15;2.35;;;;;;;20.44;29.35;99837.78;4977865;28;20101;-88
2022/05/08 10:52:44;;;;;;;6.13;2.40;;;;;;;20.46;30.12;99832.81;4945168;28;20031;-89
2022/05/08 10:55:17;;;;;;;4.97;2.35;;;;;;;20.57;28.85;99836.00;4943663;28;20027;-86
2022/05/08 10:57:44;;;;;;;5.85;2.70;;;;;;;20.47;28.72;99822.66;4958937;28;20089;-87
2022/05/08 11:00:20;;;;;;;4.40;2.30;;;;;;;20.60;29.16;99835.38;4943722;28;20026;-88
2022/05/08 11:02:52;;;;;;;4.70;2.70;;;;;;;20.58;29.31;99837.63;4960958;28;20077;-87
2022/05/08 11:05:27;;;;;;;8.90;2.40;;;;;;;20.63;28.93;99832.00;4960105;28;20425;-88
2022/05/08 11:08:03;;;;;;;4.00;2.17;;;;;;;20.74;28.99;99836.00;4977154;28;20044;-88
2022/05/08 11:10:33;;;;;;;4.68;2.10;;;;;;;20.89;28.34;99829.19;4959382;28;20031;-88
2022/05/08 11:13:21;;;;;;;4.55;2.00;;;;;;;20.68;27.74;99820.88;4959602;28;20034;-87
2022/05/08 11:15:50;;;;;;;6.28;2.60;;;;;;;20.81;28.25;99826.47;4944356;28;20030;-87
2022/05/08 11:18:19;;;;;;;3.72;2.30;;;;;;;20.92;26.42;99825.81;4943760;28;20033;-87
2022/05/08 11:20:59;;;;;;;4.25;1.95;;;;;;;20.96;26.32;99818.56;4959869;28;20405;-86
2022/05/08 11:23:26;;;;;;;6.47;2.75;;;;;;;20.99;26.93;99819.81;4945683;28;20056;-88
2022/05/08 11:25:59;;;;;;;5.82;2.13;;;;;;;20.89;26.13;99795.53;4942522;28;20547;-87
2022/05/08 11:28:25;;;;;;;7.53;2.13;;;;;;;20.92;25.68;99809.38;4943857;28;20023;-87
2022/05/08 11:30:52;;;;;;;5.97;2.20;;;;;;;21.13;25.79;99814.94;4943249;28;20065;-87
2022/05/08 11:36:08;;;;;;;3.53;2.00;;;;;;;21.32;25.19;99811.78;4962383;28;20034;-87
2022/05/08 11:38:44;;;;;;;5.38;2.17;;;;;;;21.40;24.34;99808.22;4944667;28;20033;-89
2022/05/08 11:41:17;;;;;;;3.95;2.03;;;;;;;21.42;24.24;99802.44;4944354;28;20037;-87
2022/05/08 11:43:43;;;;;;;5.07;2.10;;;;;;;21.33;23.80;99807.13;4977458;28;20094;-87
2022/05/08 11:46:09;;;;;;;4.35;2.08;;;;;;;21.36;23.13;99784.56;4958809;28;20406;-87
2022/05/08 11:48:40;;;;;;;5.38;2.20;;;;;;;21.33;23.59;99797.00;4943284;28;20110;-87
2022/05/08 11:51:06;;;;;;;5.03;1.88;;;;;;;21.22;22.90;99789.47;4928538;28;20493;-87
2022/05/08 11:53:45;;;;;;;3.58;1.88;;;;;;;21.33;23.03;99775.06;4928489;28;20039;-87
2022/05/08 11:56:33;;;;;;;5.88;2.50;;;;;;;21.35;22.54;99774.72;4946813;28;20030;-87
2022/05/08 11:59:14;;;;;;;3.60;1.80;;;;;;;21.42;22.12;99757.78;4931343;28;20034;-87
2022/05/08 12:01:43;;;;;;;2.90;1.80;;;;;;;21.53;22.04;99770.78;4949062;28;20113;-87